Impacts METAR Board
IDs:

KACT - Waco Rgnl, TX, US

Updated at: 0000 UTC 24 Oct 2019
Potential Impact None Slight Moderate High
Time 23/12Z 23/13Z 23/14Z 23/15Z 23/16Z 23/17Z 23/18Z 23/19Z 23/20Z 23/21Z 23/22Z 23/23Z 24/00Z
Temp58 55 60 66 70 76 79 81 84 84 82 81 78
Dewpt43 44 44 47 50 53 54 55 54 53 53 52 53
Altim30.09 30.08 30.10 30.11 30.10 30.07 30.04 30.00 29.96 29.94 29.92 29.92 29.92
VIS10 10 10 10 10 10 10 10 10 10 10 10 10
CIG-- -- -- -- -- -- -- -- -- -- -- -- --
CoverCLRCLRCLRCLRCLRCLRCLRCLR--CLRCLRCLRCLR
FltCatVFRVFRVFRVFRVFRVFRVFRVFRVFRVFRVFRVFRVFR
WX--------------------------
WDir180150160170170180180170190180170170150
WSpd10 8 10 11 13 20 19 16 17 19 18 16 12
WGst-- -- -- -- -- 25 25 -- -- 26 23 -- --
Raw hourly METARs
KACT 231151Z 18010KT 10SM CLR 14/06 A3009 RMK AO2 SLP185 T01440061 10161 20128 58001 $
KACT 231251Z 15008KT 10SM CLR 13/07 A3008 RMK AO2 SLP184 T01280067 $
KACT 231351Z 16010KT 10SM CLR 16/07 A3010 RMK AO2 SLP189 T01560067 $
KACT 231451Z 17011KT 10SM CLR 19/08 A3011 RMK AO2 SLP191 T01890083 53006 $
KACT 231551Z 17013KT 10SM CLR 21/10 A3010 RMK AO2 SLP187 T02110100 $
KACT 231651Z 18020G25KT 10SM CLR 24/12 A3007 RMK AO2 PK WND 18026/1649 SLP177 T02440117 $
KACT 231751Z 18019G25KT 10SM CLR 26/12 A3004 RMK AO2 PK WND 18027/1727 SLP166 T02610122 10261 20128 58022 $
KACT 231851Z 17016KT 10SM CLR 27/13 A3000 RMK AO2 PK WND 18026/1803 SLP153 T02720128 $
KACT 231951Z 19017KT 10SM 29/12 A2996 RMK AO2 SLP140 T02890122 $
KACT 232051Z 18019G26KT 10SM CLR 29/12 A2994 RMK AO2 PK WND 18026/2042 SLP131 T02890117 56035
KACT 232151Z 17018G23KT 10SM CLR 28/12 A2992 RMK AO2 SLP127 T02780117 $
KACT 232251Z 17016KT 10SM CLR 27/11 A2992 RMK AO2 SLP126 T02720111 $
KACT 232351Z 15012KT 10SM CLR 26/12 A2992 RMK AO2 SLP127 T02560117 10294 20256



Page loaded:  00:34 UTC  |   05:34 PM Pacific  |   06:34 PM Mountain  |   07:34 PM Central  |   08:34 PM Eastern

 

ADVISORIES

FORECASTS

FORECASTS

OBSERVATIONS

USER TOOLS

ABOUT US